sensor_id;sensor_type;location;lat;lon;timestamp;pressure;altitude;pressure_sealevel;temperature;humidity
34197;BME280;36594;45.192;5.722;2023-02-28T00:02:15;99290.45;;;20.31;30.47
34197;BME280;36594;45.192;5.722;2023-02-28T00:05:06;99284.70;;;20.30;30.44
34197;BME280;36594;45.192;5.722;2023-02-28T00:07:56;99290.69;;;20.30;30.47
34197;BME280;36594;45.192;5.722;2023-02-28T00:10:44;99296.14;;;20.30;30.45
34197;BME280;36594;45.192;5.722;2023-02-28T00:13:35;99294.69;;;20.27;30.46
34197;BME280;36594;45.192;5.722;2023-02-28T00:16:25;99294.17;;;20.28;30.49
34197;BME280;36594;45.192;5.722;2023-02-28T00:19:14;99297.70;;;20.28;30.43
34197;BME280;36594;45.192;5.722;2023-02-28T00:22:02;99294.69;;;20.27;30.48
34197;BME280;36594;45.192;5.722;2023-02-28T00:24:50;99296.34;;;20.28;30.49
34197;BME280;36594;45.192;5.722;2023-02-28T00:27:39;99298.46;;;20.26;30.51
34197;BME280;36594;45.192;5.722;2023-02-28T00:30:27;99299.22;;;20.24;30.52
34197;BME280;36594;45.192;5.722;2023-02-28T00:33:16;99291.03;;;20.24;30.50
34197;BME280;36594;45.192;5.722;2023-02-28T00:36:07;99289.39;;;20.23;30.51
34197;BME280;36594;45.192;5.722;2023-02-28T00:38:56;99290.95;;;20.22;30.53
34197;BME280;36594;45.192;5.722;2023-02-28T00:41:46;99293.36;;;20.21;30.55
34197;BME280;36594;45.192;5.722;2023-02-28T00:44:35;99292.52;;;20.20;30.58
34197;BME280;36594;45.192;5.722;2023-02-28T00:47:23;99288.72;;;20.21;30.55
34197;BME280;36594;45.192;5.722;2023-02-28T00:50:11;99282.77;;;20.22;30.55
34197;BME280;36594;45.192;5.722;2023-02-28T00:53:00;99286.34;;;20.22;30.53
34197;BME280;36594;45.192;5.722;2023-02-28T00:55:50;99287.70;;;20.22;30.48
34197;BME280;36594;45.192;5.722;2023-02-28T00:58:39;99287.35;;;20.21;30.55
34197;BME280;36594;45.192;5.722;2023-02-28T01:01:27;99291.27;;;20.23;30.52
34197;BME280;36594;45.192;5.722;2023-02-28T01:04:16;99290.08;;;20.21;30.53
34197;BME280;36594;45.192;5.722;2023-02-28T01:07:04;99285.70;;;20.20;30.55
34197;BME280;36594;45.192;5.722;2023-02-28T01:09:52;99283.61;;;20.22;30.53
34197;BME280;36594;45.192;5.722;2023-02-28T01:12:41;99286.66;;;20.23;30.53
34197;BME280;36594;45.192;5.722;2023-02-28T01:15:29;99285.18;;;20.21;30.53
34197;BME280;36594;45.192;5.722;2023-02-28T01:18:20;99295.36;;;20.23;30.54
34197;BME280;36594;45.192;5.722;2023-02-28T01:21:12;99297.56;;;20.23;30.53
34197;BME280;36594;45.192;5.722;2023-02-28T01:24:01;99300.81;;;20.23;30.54
34197;BME280;36594;45.192;5.722;2023-02-28T01:26:50;99296.09;;;20.21;30.53
34197;BME280;36594;45.192;5.722;2023-02-28T01:29:38;99293.05;;;20.20;30.55
34197;BME280;36594;45.192;5.722;2023-02-28T01:32:26;99294.52;;;20.22;30.53
34197;BME280;36594;45.192;5.722;2023-02-28T01:35:15;99287.70;;;20.22;30.53
34197;BME280;36594;45.192;5.722;2023-02-28T01:38:04;99290.08;;;20.21;30.54
34197;BME280;36594;45.192;5.722;2023-02-28T01:40:53;99282.37;;;20.18;30.56
34197;BME280;36594;45.192;5.722;2023-02-28T01:46:36;99286.22;;;20.20;30.55
34197;BME280;36594;45.192;5.722;2023-02-28T01:49:25;99293.05;;;20.20;30.55
34197;BME280;36594;45.192;5.722;2023-02-28T01:52:15;99293.88;;;20.20;30.56
34197;BME280;36594;45.192;5.722;2023-02-28T01:55:07;99292.52;;;20.20;30.56
34197;BME280;36594;45.192;5.722;2023-02-28T01:57:58;99294.64;;;20.18;30.57
34197;BME280;36594;45.192;5.722;2023-02-28T02:00:47;99290.31;;;20.20;30.54
34197;BME280;36594;45.192;5.722;2023-02-28T02:03:36;99292.20;;;20.19;30.56
34197;BME280;36594;45.192;5.722;2023-02-28T02:06:30;99292.20;;;20.19;30.54
34197;BME280;36594;45.192;5.722;2023-02-28T02:09:19;99289.47;;;20.19;30.54
34197;BME280;36594;45.192;5.722;2023-02-28T02:12:26;99291.91;;;20.18;30.56
34197;BME280;36594;45.192;5.722;2023-02-28T02:18:26;99289.95;;;20.16;30.58
34197;BME280;36594;45.192;5.722;2023-02-28T02:36:23;99290.67;;;20.14;30.64
34197;BME280;36594;45.192;5.722;2023-02-28T02:42:28;99281.88;;;20.12;30.63
34197;BME280;36594;45.192;5.722;2023-02-28T02:45:23;99283.24;;;20.12;30.64
34197;BME280;36594;45.192;5.722;2023-02-28T02:48:13;99282.64;;;20.10;30.66
34197;BME280;36594;45.192;5.722;2023-02-28T02:51:06;99279.63;;;20.09;30.68
34197;BME280;36594;45.192;5.722;2023-02-28T02:53:59;99272.42;;;20.15;30.61
34197;BME280;36594;45.192;5.722;2023-02-28T02:56:48;99274.55;;;20.13;30.60
34197;BME280;36594;45.192;5.722;2023-02-28T02:59:39;99269.61;;;20.12;30.61
34197;BME280;36594;45.192;5.722;2023-02-28T03:02:30;99270.45;;;20.13;30.60
34197;BME280;36594;45.192;5.722;2023-02-28T03:05:35;99271.58;;;20.14;30.59
34197;BME280;36594;45.192;5.722;2023-02-28T03:08:17;99262.95;;;20.08;30.57
34197;BME280;36594;45.192;5.722;2023-02-28T03:11:11;99277.79;;;20.12;30.59
34197;BME280;36594;45.192;5.722;2023-02-28T03:23:13;99280.67;;;20.08;30.65
34197;BME280;36594;45.192;5.722;2023-02-28T03:26:06;99279.83;;;20.08;30.68
34197;BME280;36594;45.192;5.722;2023-02-28T03:29:06;99276.05;;;20.09;30.65
34197;BME280;36594;45.192;5.722;2023-02-28T03:32:00;99277.42;;;20.09;30.65
34197;BME280;36594;45.192;5.722;2023-02-28T03:35:06;99277.42;;;20.09;30.67
34197;BME280;36594;45.192;5.722;2023-02-28T03:38:03;99275.53;;;20.09;30.64
34197;BME280;36594;45.192;5.722;2023-02-28T03:40:54;99279.83;;;20.08;30.63
34197;BME280;36594;45.192;5.722;2023-02-28T03:43:45;99283.72;;;20.09;30.63
34197;BME280;36594;45.192;5.722;2023-02-28T03:46:35;99279.91;;;20.10;30.60
34197;BME280;36594;45.192;5.722;2023-02-28T03:49:30;99274.45;;;20.10;30.62
34197;BME280;36594;45.192;5.722;2023-02-28T03:52:47;99277.03;;;20.14;30.62
34197;BME280;36594;45.192;5.722;2023-02-28T03:55:43;99278.03;;;20.11;30.58
34197;BME280;36594;45.192;5.722;2023-02-28T04:02:06;99288.09;;;20.10;30.55
34197;BME280;36594;45.192;5.722;2023-02-28T04:04:15;99288.09;;;20.10;30.50
34197;BME280;36594;45.192;5.722;2023-02-28T04:07:07;99288.41;;;20.11;30.36
34197;BME280;36594;45.192;5.722;2023-02-28T04:09:55;99288.17;;;20.13;30.28
34197;BME280;36594;45.192;5.722;2023-02-28T04:12:44;99290.82;;;20.10;30.24
34197;BME280;36594;45.192;5.722;2023-02-28T04:15:32;99291.89;;;20.09;30.22
34197;BME280;36594;45.192;5.722;2023-02-28T04:18:21;99297.11;;;20.11;30.24
34197;BME280;36594;45.192;5.722;2023-02-28T04:21:11;99299.84;;;20.11;30.20
34197;BME280;36594;45.192;5.722;2023-02-28T04:23:59;99307.18;;;20.10;30.09
34197;BME280;36594;45.192;5.722;2023-02-28T04:26:50;99308.55;;;20.10;30.08
34197;BME280;36594;45.192;5.722;2023-02-28T04:29:39;99313.47;;;20.11;30.02
34197;BME280;36594;45.192;5.722;2023-02-28T04:32:28;99310.66;;;20.08;30.04
34197;BME280;36594;45.192;5.722;2023-02-28T04:35:17;99309.62;;;20.09;30.02
34197;BME280;36594;45.192;5.722;2023-02-28T04:38:05;99318.00;;;20.08;29.92
34197;BME280;36594;45.192;5.722;2023-02-28T04:40:53;99317.71;;;20.07;30.00
34197;BME280;36594;45.192;5.722;2023-02-28T04:43:44;99316.03;;;20.06;29.96
34197;BME280;36594;45.192;5.722;2023-02-28T04:46:32;99325.14;;;20.09;29.94
34197;BME280;36594;45.192;5.722;2023-02-28T04:49:20;99323.45;;;20.08;29.92
34197;BME280;36594;45.192;5.722;2023-02-28T04:52:09;99329.75;;;20.08;29.84
34197;BME280;36594;45.192;5.722;2023-02-28T04:54:57;99320.52;;;20.09;29.83
34197;BME280;36594;45.192;5.722;2023-02-28T04:57:45;99324.30;;;20.08;29.79
34197;BME280;36594;45.192;5.722;2023-02-28T05:00:34;99327.55;;;20.08;29.75
34197;BME280;36594;45.192;5.722;2023-02-28T05:03:22;99323.45;;;20.08;29.73
34197;BME280;36594;45.192;5.722;2023-02-28T05:06:12;99321.48;;;20.06;29.81
34197;BME280;36594;45.192;5.722;2023-02-28T05:09:01;99324.03;;;20.00;29.73
34197;BME280;36594;45.192;5.722;2023-02-28T05:11:49;99335.11;;;20.06;29.68
34197;BME280;36594;45.192;5.722;2023-02-28T05:14:37;99333.52;;;20.07;29.95
34197;BME280;36594;45.192;5.722;2023-02-28T05:17:26;99331.86;;;20.06;30.04
34197;BME280;36594;45.192;5.722;2023-02-28T05:20:14;99333.46;;;20.05;30.12
34197;BME280;36594;45.192;5.722;2023-02-28T05:23:03;99336.19;;;20.05;30.17
34197;BME280;36594;45.192;5.722;2023-02-28T05:25:51;99335.34;;;20.04;30.16
34197;BME280;36594;45.192;5.722;2023-02-28T05:28:40;99334.83;;;20.05;30.20
34197;BME280;36594;45.192;5.722;2023-02-28T05:31:28;99335.02;;;20.03;30.22
34197;BME280;36594;45.192;5.722;2023-02-28T05:34:16;99332.82;;;20.03;30.24
34197;BME280;36594;45.192;5.722;2023-02-28T05:37:07;99333.81;;;19.99;30.26
34197;BME280;36594;45.192;5.722;2023-02-28T05:39:55;99330.65;;;20.02;30.27
34197;BME280;36594;45.192;5.722;2023-02-28T05:42:44;99330.33;;;20.01;30.29
34197;BME280;36594;45.192;5.722;2023-02-28T05:45:32;99331.17;;;20.02;30.28
34197;BME280;36594;45.192;5.722;2023-02-28T05:48:20;99328.97;;;20.01;30.31
34197;BME280;36594;45.192;5.722;2023-02-28T05:51:09;99330.84;;;20.00;30.30
34197;BME280;36594;45.192;5.722;2023-02-28T05:54:01;99320.47;;;20.00;30.33
34197;BME280;36594;45.192;5.722;2023-02-28T05:56:50;99322.91;;;19.99;30.35
34197;BME280;36594;45.192;5.722;2023-02-28T05:59:38;99326.15;;;19.98;30.35
34197;BME280;36594;45.192;5.722;2023-02-28T06:02:27;99332.67;;;19.97;30.36
34197;BME280;36594;45.192;5.722;2023-02-28T06:05:17;99325.31;;;19.98;30.36
34197;BME280;36594;45.192;5.722;2023-02-28T06:08:06;99328.03;;;19.98;30.40
34197;BME280;36594;45.192;5.722;2023-02-28T06:10:54;99333.48;;;19.98;30.38
34197;BME280;36594;45.192;5.722;2023-02-28T06:13:42;99340.63;;;19.99;30.38
34197;BME280;36594;45.192;5.722;2023-02-28T06:16:33;99335.41;;;19.97;30.40
34197;BME280;36594;45.192;5.722;2023-02-28T06:19:22;99340.63;;;19.99;30.40
34197;BME280;36594;45.192;5.722;2023-02-28T06:22:12;99347.95;;;19.98;30.37
34197;BME280;36594;45.192;5.722;2023-02-28T06:25:00;99354.69;;;19.96;30.41
34197;BME280;36594;45.192;5.722;2023-02-28T06:27:48;99350.83;;;19.94;30.44
34197;BME280;36594;45.192;5.722;2023-02-28T06:30:38;99355.53;;;19.96;30.42
34197;BME280;36594;45.192;5.722;2023-02-28T06:33:26;99358.25;;;19.96;30.43
34197;BME280;36594;45.192;5.722;2023-02-28T06:36:16;99363.19;;;19.97;30.42
34197;BME280;36594;45.192;5.722;2023-02-28T06:39:04;99370.00;;;19.97;30.43
34197;BME280;36594;45.192;5.722;2023-02-28T06:41:53;99373.25;;;19.96;30.43
34197;BME280;36594;45.192;5.722;2023-02-28T06:44:42;99372.73;;;19.97;30.44
34197;BME280;36594;45.192;5.722;2023-02-28T06:47:31;99375.45;;;19.97;30.44
34197;BME280;36594;45.192;5.722;2023-02-28T06:50:20;99378.18;;;19.97;30.46
34197;BME280;36594;45.192;5.722;2023-02-28T06:53:08;99376.30;;;19.97;30.42
34197;BME280;36594;45.192;5.722;2023-02-28T06:55:57;99383.11;;;19.97;30.45
34197;BME280;36594;45.192;5.722;2023-02-28T06:58:49;99385.00;;;19.97;30.44
34197;BME280;36594;45.192;5.722;2023-02-28T07:01:40;99387.92;;;19.95;30.47
34197;BME280;36594;45.192;5.722;2023-02-28T07:04:28;99388.77;;;19.96;30.47
34197;BME280;36594;45.192;5.722;2023-02-28T07:07:17;99393.17;;;19.97;30.43
34197;BME280;36594;45.192;5.722;2023-02-28T07:10:06;99402.72;;;19.97;30.48
34197;BME280;36594;45.192;5.722;2023-02-28T07:12:55;99406.28;;;19.97;30.48
34197;BME280;36594;45.192;5.722;2023-02-28T07:15:44;99406.28;;;19.97;30.45
34197;BME280;36594;45.192;5.722;2023-02-28T07:18:32;99413.10;;;19.97;30.45
34197;BME280;36594;45.192;5.722;2023-02-28T07:21:21;99419.92;;;19.97;30.42
34197;BME280;36594;45.192;5.722;2023-02-28T07:24:10;99421.28;;;19.97;30.47
34197;BME280;36594;45.192;5.722;2023-02-28T07:26:59;99420.95;;;19.96;30.44
34197;BME280;36594;45.192;5.722;2023-02-28T07:29:48;99415.19;;;19.95;30.49
34197;BME280;36594;45.192;5.722;2023-02-28T07:32:36;99417.48;;;19.98;30.48
34197;BME280;36594;45.192;5.722;2023-02-28T07:35:24;99418.23;;;19.96;30.50
34197;BME280;36594;45.192;5.722;2023-02-28T07:38:13;99422.84;;;19.96;30.48
34197;BME280;36594;45.192;5.722;2023-02-28T07:41:02;99419.59;;;19.96;30.47
34197;BME280;36594;45.192;5.722;2023-02-28T07:43:54;99422.84;;;19.96;30.47
34197;BME280;36594;45.192;5.722;2023-02-28T07:46:44;99418.14;;;19.94;30.49
34197;BME280;36594;45.192;5.722;2023-02-28T07:49:32;99426.41;;;19.96;30.43
34197;BME280;36594;45.192;5.722;2023-02-28T07:52:20;99424.00;;;19.97;30.46
34197;BME280;36594;45.192;5.722;2023-02-28T07:55:10;99417.91;;;19.95;30.48
34197;BME280;36594;45.192;5.722;2023-02-28T07:58:01;99422.41;;;19.99;30.46
34197;BME280;36594;45.192;5.722;2023-02-28T08:00:49;99430.59;;;19.99;30.46
34197;BME280;36594;45.192;5.722;2023-02-28T08:03:39;99431.95;;;19.99;30.44
34197;BME280;36594;45.192;5.722;2023-02-28T08:06:28;99425.14;;;19.99;30.45
34197;BME280;36594;45.192;5.722;2023-02-28T08:09:16;99429.75;;;19.98;30.46
34197;BME280;36594;45.192;5.722;2023-02-28T08:12:05;99434.36;;;19.98;30.49
34197;BME280;36594;45.192;5.722;2023-02-28T08:14:53;99429.98;;;19.97;30.48
34197;BME280;36594;45.192;5.722;2023-02-28T08:17:42;99439.30;;;19.98;30.53
34197;BME280;36594;45.192;5.722;2023-02-28T08:20:30;99437.09;;;19.98;30.50
34197;BME280;36594;45.192;5.722;2023-02-28T08:23:19;99435.52;;;19.99;30.47
34197;BME280;36594;45.192;5.722;2023-02-28T08:26:08;99438.77;;;19.99;30.48
34197;BME280;36594;45.192;5.722;2023-02-28T08:28:56;99443.09;;;19.97;30.47
34197;BME280;36594;45.192;5.722;2023-02-28T08:31:45;99448.92;;;20.01;30.44
34197;BME280;36594;45.192;5.722;2023-02-28T08:34:33;99450.81;;;20.00;30.45
34197;BME280;36594;45.192;5.722;2023-02-28T08:37:22;99449.97;;;20.00;30.44
34197;BME280;36594;45.192;5.722;2023-02-28T08:40:11;99451.33;;;20.00;30.40
34197;BME280;36594;45.192;5.722;2023-02-28T08:43:01;99450.29;;;20.01;30.40
34197;BME280;36594;45.192;5.722;2023-02-28T08:45:51;99448.60;;;20.00;30.41
34197;BME280;36594;45.192;5.722;2023-02-28T08:48:40;99454.90;;;20.00;30.42
34197;BME280;36594;45.192;5.722;2023-02-28T08:51:29;99453.02;;;20.01;30.39
34197;BME280;36594;45.192;5.722;2023-02-28T08:54:18;99449.86;;;20.04;30.37
34197;BME280;36594;45.192;5.722;2023-02-28T08:57:06;99447.42;;;20.05;30.33
34197;BME280;36594;45.192;5.722;2023-02-28T08:59:55;99450.38;;;20.04;30.39
34197;BME280;36594;45.192;5.722;2023-02-28T09:02:44;99454.47;;;20.04;30.35
34197;BME280;36594;45.192;5.722;2023-02-28T09:05:33;99448.17;;;20.03;30.39
34197;BME280;36594;45.192;5.722;2023-02-28T09:08:21;99454.86;;;20.07;30.34
34197;BME280;36594;45.192;5.722;2023-02-28T09:11:10;99458.95;;;20.07;30.36
34197;BME280;36594;45.192;5.722;2023-02-28T09:13:59;99461.67;;;20.07;30.34
34197;BME280;36594;45.192;5.722;2023-02-28T09:16:49;99460.25;;;20.05;30.35
34197;BME280;36594;45.192;5.722;2023-02-28T09:19:37;99461.38;;;20.06;30.34
34197;BME280;36594;45.192;5.722;2023-02-28T09:22:26;99462.75;;;20.06;30.35
34197;BME280;36594;45.192;5.722;2023-02-28T09:25:14;99458.04;;;20.04;30.35
34197;BME280;36594;45.192;5.722;2023-02-28T09:28:02;99460.77;;;20.04;30.38
34197;BME280;36594;45.192;5.722;2023-02-28T09:30:53;99467.06;;;20.05;30.37
34197;BME280;36594;45.192;5.722;2023-02-28T09:33:43;99469.98;;;20.03;30.39
34197;BME280;36594;45.192;5.722;2023-02-28T09:36:31;99469.98;;;20.03;30.41
34197;BME280;36594;45.192;5.722;2023-02-28T09:39:22;99470.31;;;20.04;30.42
34197;BME280;36594;45.192;5.722;2023-02-28T09:42:21;99468.72;;;20.06;30.41
34197;BME280;36594;45.192;5.722;2023-02-28T09:45:22;99468.72;;;20.06;30.40
34197;BME280;36594;45.192;5.722;2023-02-28T09:48:14;99472.29;;;20.06;30.37
34197;BME280;36594;45.192;5.722;2023-02-28T09:54:08;99480.05;;;20.03;30.42
34197;BME280;36594;45.192;5.722;2023-02-28T10:00:02;99480.14;;;20.05;30.44
34197;BME280;36594;45.192;5.722;2023-02-28T10:02:54;99479.39;;;20.07;30.43
34197;BME280;36594;45.192;5.722;2023-02-28T10:09:00;99478.27;;;20.06;30.43
34197;BME280;36594;45.192;5.722;2023-02-28T10:11:50;99485.83;;;20.04;30.49
34197;BME280;36594;45.192;5.722;2023-02-28T10:14:40;99482.48;;;20.02;30.47
34197;BME280;36594;45.192;5.722;2023-02-28T10:17:37;99480.70;;;20.05;30.48
34197;BME280;36594;45.192;5.722;2023-02-28T10:20:24;99480.47;;;20.06;30.43
34197;BME280;36594;45.192;5.722;2023-02-28T10:23:28;99482.87;;;20.05;30.44
34197;BME280;36594;45.192;5.722;2023-02-28T10:26:18;99481.51;;;20.05;30.44
34197;BME280;36594;45.192;5.722;2023-02-28T10:29:08;99478.69;;;20.03;30.44
34197;BME280;36594;45.192;5.722;2023-02-28T10:31:59;99480.89;;;20.03;30.48
34197;BME280;36594;45.192;5.722;2023-02-28T10:35:00;99478.69;;;20.03;30.46
34197;BME280;36594;45.192;5.722;2023-02-28T10:38:05;99481.22;;;20.04;30.45
34197;BME280;36594;45.192;5.722;2023-02-28T10:40:36;99480.98;;;20.06;30.44
34197;BME280;36594;45.192;5.722;2023-02-28T10:43:24;99487.28;;;20.06;30.42
34197;BME280;36594;45.192;5.722;2023-02-28T10:46:18;99489.40;;;20.04;30.43
34197;BME280;36594;45.192;5.722;2023-02-28T10:49:22;99492.31;;;20.09;30.40
34197;BME280;36594;45.192;5.722;2023-02-28T10:52:10;99496.59;;;20.08;30.45
34197;BME280;36594;45.192;5.722;2023-02-28T10:55:24;99487.58;;;20.07;30.42
34197;BME280;36594;45.192;5.722;2023-02-28T10:57:50;99486.86;;;20.09;30.43
34197;BME280;36594;45.192;5.722;2023-02-28T11:00:39;99500.17;;;20.08;30.43
34197;BME280;36594;45.192;5.722;2023-02-28T11:03:35;99498.28;;;20.09;30.41
34197;BME280;36594;45.192;5.722;2023-02-28T11:06:26;99493.58;;;20.07;30.42
34197;BME280;36594;45.192;5.722;2023-02-28T11:09:37;99488.22;;;20.09;30.38
34197;BME280;36594;45.192;5.722;2023-02-28T11:12:41;99484.33;;;20.08;30.41
34197;BME280;36594;45.192;5.722;2023-02-28T11:15:28;99479.34;;;20.05;30.45
34197;BME280;36594;45.192;5.722;2023-02-28T11:18:27;99483.19;;;20.06;30.45
34197;BME280;36594;45.192;5.722;2023-02-28T11:21:32;99468.72;;;20.06;30.48
34197;BME280;36594;45.192;5.722;2023-02-28T11:24:23;99473.66;;;20.06;30.45
34197;BME280;36594;45.192;5.722;2023-02-28T11:30:38;99457.81;;;20.06;30.44
34197;BME280;36594;45.192;5.722;2023-02-28T11:33:40;99455.09;;;20.06;30.43
34197;BME280;36594;45.192;5.722;2023-02-28T11:36:25;99451.84;;;20.06;30.46
34197;BME280;36594;45.192;5.722;2023-02-28T11:39:15;99442.30;;;20.06;30.44
34197;BME280;36594;45.192;5.722;2023-02-28T11:48:32;99435.16;;;20.05;30.45
34197;BME280;36594;45.192;5.722;2023-02-28T11:51:35;99434.55;;;20.03;30.46
34197;BME280;36594;45.192;5.722;2023-02-28T12:03:44;99417.14;;;20.04;30.50
34197;BME280;36594;45.192;5.722;2023-02-28T12:06:44;99418.80;;;20.05;30.44
34197;BME280;36594;45.192;5.722;2023-02-28T12:09:43;99417.44;;;20.05;30.47
34197;BME280;36594;45.192;5.722;2023-02-28T12:22:03;99416.82;;;20.03;30.46
34197;BME280;36594;45.192;5.722;2023-02-28T12:25:22;99405.92;;;20.03;30.49
34197;BME280;36594;45.192;5.722;2023-02-28T12:28:12;99411.89;;;20.03;30.53
34197;BME280;36594;45.192;5.722;2023-02-28T12:31:16;99405.92;;;20.03;30.49
34197;BME280;36594;45.192;5.722;2023-02-28T12:34:04;99404.35;;;20.05;30.46
34197;BME280;36594;45.192;5.722;2023-02-28T12:36:54;99405.72;;;20.05;30.46
34197;BME280;36594;45.192;5.722;2023-02-28T12:39:49;99406.52;;;20.05;30.44
34197;BME280;36594;45.192;5.722;2023-02-28T12:42:47;99407.14;;;20.07;30.43
34197;BME280;36594;45.192;5.722;2023-02-28T12:46:05;99409.25;;;20.05;30.42
34197;BME280;36594;45.192;5.722;2023-02-28T12:48:55;99404.64;;;20.06;30.43
34197;BME280;36594;45.192;5.722;2023-02-28T12:51:38;99400.78;;;20.04;30.43
34197;BME280;36594;45.192;5.722;2023-02-28T12:54:35;99390.48;;;20.06;30.41
34197;BME280;36594;45.192;5.722;2023-02-28T12:57:48;99386.25;;;20.10;30.40
34197;BME280;36594;45.192;5.722;2023-02-28T13:00:40;99381.23;;;20.07;30.37
34197;BME280;36594;45.192;5.722;2023-02-28T13:10:08;99365.86;;;20.04;30.43
34197;BME280;36594;45.192;5.722;2023-02-28T13:13:01;99355.80;;;20.04;30.46
34197;BME280;36594;45.192;5.722;2023-02-28T13:18:49;99353.45;;;20.08;30.41
34197;BME280;36594;45.192;5.722;2023-02-28T13:21:42;99346.54;;;20.05;30.42
34197;BME280;36594;45.192;5.722;2023-02-28T13:24:48;99347.91;;;20.05;30.40
34197;BME280;36594;45.192;5.722;2023-02-28T13:27:39;99339.20;;;20.06;30.40
34197;BME280;36594;45.192;5.722;2023-02-28T13:36:39;99342.16;;;20.04;30.42
34197;BME280;36594;45.192;5.722;2023-02-28T13:42:34;99343.30;;;20.06;30.42
34197;BME280;36594;45.192;5.722;2023-02-28T13:45:26;99346.86;;;20.06;30.37
34197;BME280;36594;45.192;5.722;2023-02-28T13:48:18;99346.02;;;20.06;30.42
34197;BME280;36594;45.192;5.722;2023-02-28T13:51:38;99348.31;;;20.09;30.34
34197;BME280;36594;45.192;5.722;2023-02-28T14:00:44;99345.73;;;20.05;30.42
34197;BME280;36594;45.192;5.722;2023-02-28T14:06:30;99340.89;;;20.07;30.37
34197;BME280;36594;45.192;5.722;2023-02-28T14:09:27;99340.66;;;20.08;30.33
34197;BME280;36594;45.192;5.722;2023-02-28T14:18:40;99337.75;;;20.03;30.41
34197;BME280;36594;45.192;5.722;2023-02-28T14:21:34;99333.14;;;20.04;30.38
34197;BME280;36594;45.192;5.722;2023-02-28T14:24:32;99328.20;;;20.03;30.41
34197;BME280;36594;45.192;5.722;2023-02-28T14:39:18;99333.46;;;20.05;30.34
34197;BME280;36594;45.192;5.722;2023-02-28T14:42:25;99333.66;;;20.03;30.36
34197;BME280;36594;45.192;5.722;2023-02-28T14:44:59;99336.91;;;20.03;30.38
34197;BME280;36594;45.192;5.722;2023-02-28T14:47:50;99344.89;;;20.04;30.33
34197;BME280;36594;45.192;5.722;2023-02-28T14:50:39;99340.56;;;20.06;30.36
34197;BME280;36594;45.192;5.722;2023-02-28T14:53:35;99348.45;;;20.05;30.34
34197;BME280;36594;45.192;5.722;2023-02-28T14:56:35;99345.17;;;20.05;30.33
34197;BME280;36594;45.192;5.722;2023-02-28T14:59:31;99333.46;;;20.05;30.31
34197;BME280;36594;45.192;5.722;2023-02-28T15:02:24;99338.16;;;20.07;30.28
34197;BME280;36594;45.192;5.722;2023-02-28T15:08:09;99336.10;;;20.02;30.31
34197;BME280;36594;45.192;5.722;2023-02-28T15:11:16;99335.87;;;20.04;30.30
34197;BME280;36594;45.192;5.722;2023-02-28T15:14:19;99338.83;;;20.02;30.29
34197;BME280;36594;45.192;5.722;2023-02-28T15:17:12;99345.00;;;20.00;30.32
34197;BME280;36594;45.192;5.722;2023-02-28T15:20:00;99347.44;;;19.99;30.36
34197;BME280;36594;45.192;5.722;2023-02-28T15:22:50;99345.55;;;19.99;30.32
34197;BME280;36594;45.192;5.722;2023-02-28T15:25:41;99353.94;;;19.98;30.34
34197;BME280;36594;45.192;5.722;2023-02-28T15:28:29;99349.64;;;19.99;30.32
34197;BME280;36594;45.192;5.722;2023-02-28T15:31:33;99353.18;;;20.00;30.30
34197;BME280;36594;45.192;5.722;2023-02-28T15:34:38;99352.05;;;19.98;30.29
34197;BME280;36594;45.192;5.722;2023-02-28T15:37:38;99353.94;;;19.98;30.30
34197;BME280;36594;45.192;5.722;2023-02-28T15:43:26;99344.53;;;19.94;30.34
34197;BME280;36594;45.192;5.722;2023-02-28T15:46:15;99328.79;;;19.96;30.36
34197;BME280;36594;45.192;5.722;2023-02-28T15:49:04;99334.77;;;19.95;30.36
34197;BME280;36594;45.192;5.722;2023-02-28T15:51:55;99342.42;;;19.96;30.33
34197;BME280;36594;45.192;5.722;2023-02-28T15:54:45;99344.86;;;19.95;30.30
34197;BME280;36594;45.192;5.722;2023-02-28T15:57:34;99342.74;;;19.97;30.26
34197;BME280;36594;45.192;5.722;2023-02-28T16:00:25;99352.48;;;19.95;30.25
34197;BME280;36594;45.192;5.722;2023-02-28T16:03:27;99346.22;;;19.95;30.26
34197;BME280;36594;45.192;5.722;2023-02-28T16:09:15;99339.61;;;19.93;30.26
34197;BME280;36594;45.192;5.722;2023-02-28T16:12:04;99341.95;;;19.90;30.28
34197;BME280;36594;45.192;5.722;2023-02-28T16:14:54;99348.02;;;19.92;30.29
34197;BME280;36594;45.192;5.722;2023-02-28T16:17:44;99350.22;;;19.92;30.29
34197;BME280;36594;45.192;5.722;2023-02-28T16:20:33;99354.40;;;19.95;30.25
34197;BME280;36594;45.192;5.722;2023-02-28T16:23:22;99348.95;;;19.95;30.21
34197;BME280;36594;45.192;5.722;2023-02-28T16:26:23;99363.30;;;19.93;30.19
34197;BME280;36594;45.192;5.722;2023-02-28T16:29:19;99362.77;;;19.93;30.21
34197;BME280;36594;45.192;5.722;2023-02-28T16:32:06;99361.33;;;19.91;30.26
34197;BME280;36594;45.192;5.722;2023-02-28T16:34:55;99356.42;;;19.90;30.22
34197;BME280;36594;45.192;5.722;2023-02-28T16:37:43;99361.03;;;19.90;30.23
34197;BME280;36594;45.192;5.722;2023-02-28T16:40:34;99355.34;;;19.91;30.20
34197;BME280;36594;45.192;5.722;2023-02-28T16:43:25;99358.39;;;19.92;30.22
34197;BME280;36594;45.192;5.722;2023-02-28T16:46:15;99365.41;;;19.91;30.17
34197;BME280;36594;45.192;5.722;2023-02-28T16:49:04;99372.23;;;19.91;30.18
34197;BME280;36594;45.192;5.722;2023-02-28T16:51:52;99373.82;;;19.89;30.17
34197;BME280;36594;45.192;5.722;2023-02-28T16:54:41;99376.03;;;19.90;30.19
34197;BME280;36594;45.192;5.722;2023-02-28T16:57:30;99380.73;;;19.92;30.16
34197;BME280;36594;45.192;5.722;2023-02-28T17:00:19;99376.31;;;19.91;30.19
34197;BME280;36594;45.192;5.722;2023-02-28T17:03:26;99385.05;;;19.90;30.17
34197;BME280;36594;45.192;5.722;2023-02-28T17:06:06;99383.69;;;19.90;30.16
34197;BME280;36594;45.192;5.722;2023-02-28T17:08:55;99383.88;;;19.89;30.17
34197;BME280;36594;45.192;5.722;2023-02-28T17:11:44;99383.88;;;19.89;30.15
34197;BME280;36594;45.192;5.722;2023-02-28T17:14:33;99384.95;;;19.88;30.19
34197;BME280;36594;45.192;5.722;2023-02-28T17:17:29;99386.00;;;19.87;30.14